Columbus Township, Michigan
Current Conditions -  °F | °C
As of 3:16 AM on Friday 24 Oct 2014 (Local Time) from KPHN Reporting Station
Haze Haze  
Wind Chill: 32°   Ceiling: 200
Heat Index: 32°   Visibility: 5mi
Dew Point: 32°   Wind: 0mph
Humidity: 100%   Direction: NA
Pressure: 30.09"   Gusts: NA
Location:  42.856°N, 82.6757°W
Report Text: KPHN 240716Z AUTO 00000KT 5SM BR BKN002 M00/M00 A3009 RMK AO2
Loading
Personal Weather Stations






























Interactive Weather Map
Tropical Storm Tracking
New forecast layout! Learn more

10-Day Weather Forecast

Advertisements
Track Severe Weather on mobile